sensor_id;sensor_type;location;lat;lon;timestamp;pressure;altitude;pressure_sealevel;temperature
71960;BMP280;59832;51.146;14.024;2023-08-21T00:00:28;98902.41;;;22.15
71960;BMP280;59832;51.146;14.024;2023-08-21T00:02:54;98903.97;;;22.12
71960;BMP280;59832;51.146;14.024;2023-08-21T00:05:21;98905.81;;;22.12
71960;BMP280;59832;51.146;14.024;2023-08-21T00:07:47;98902.84;;;22.13
71960;BMP280;59832;51.146;14.024;2023-08-21T00:10:17;98895.22;;;22.06
71960;BMP280;59832;51.146;14.024;2023-08-21T00:12:43;98903.00;;;22.06
71960;BMP280;59832;51.146;14.024;2023-08-21T00:15:10;98899.00;;;22.02
71960;BMP280;59832;51.146;14.024;2023-08-21T00:17:36;98891.97;;;21.86
71960;BMP280;59832;51.146;14.024;2023-08-21T00:20:03;98888.44;;;21.76
71960;BMP280;59832;51.146;14.024;2023-08-21T00:22:29;98890.84;;;21.87
71960;BMP280;59832;51.146;14.024;2023-08-21T00:24:55;98886.78;;;21.86
71960;BMP280;59832;51.146;14.024;2023-08-21T00:27:22;98886.28;;;21.91
71960;BMP280;59832;51.146;14.024;2023-08-21T00:29:48;98885.66;;;21.87
71960;BMP280;59832;51.146;14.024;2023-08-21T00:32:15;98882.31;;;21.86
71960;BMP280;59832;51.146;14.024;2023-08-21T00:34:42;98883.44;;;21.85
71960;BMP280;59832;51.146;14.024;2023-08-21T00:37:08;98877.88;;;21.87
71960;BMP280;59832;51.146;14.024;2023-08-21T00:39:35;98879.38;;;21.84
71960;BMP280;59832;51.146;14.024;2023-08-21T00:42:01;98884.72;;;21.77
71960;BMP280;59832;51.146;14.024;2023-08-21T00:44:27;98882.94;;;21.74
71960;BMP280;59832;51.146;14.024;2023-08-21T00:46:54;98888.28;;;21.67
71960;BMP280;59832;51.146;14.024;2023-08-21T00:49:20;98880.03;;;21.72
71960;BMP280;59832;51.146;14.024;2023-08-21T00:51:48;98874.53;;;21.70
71960;BMP280;59832;51.146;14.024;2023-08-21T00:54:14;98873.22;;;21.62
71960;BMP280;59832;51.146;14.024;2023-08-21T00:56:41;98876.53;;;21.63
71960;BMP280;59832;51.146;14.024;2023-08-21T00:59:08;98875.66;;;21.69
71960;BMP280;59832;51.146;14.024;2023-08-21T01:01:35;98869.66;;;21.72
71960;BMP280;59832;51.146;14.024;2023-08-21T01:04:01;98864.97;;;21.67
71960;BMP280;59832;51.146;14.024;2023-08-21T01:06:29;98865.72;;;21.48
71960;BMP280;59832;51.146;14.024;2023-08-21T01:11:28;98878.75;;;21.45
71960;BMP280;59832;51.146;14.024;2023-08-21T01:14:06;98873.56;;;21.45
71960;BMP280;59832;51.146;14.024;2023-08-21T01:16:34;98877.25;;;21.47
71960;BMP280;59832;51.146;14.024;2023-08-21T01:19:02;98865.78;;;21.45
71960;BMP280;59832;51.146;14.024;2023-08-21T01:21:29;98872.78;;;21.28
71960;BMP280;59832;51.146;14.024;2023-08-21T01:23:56;98875.56;;;21.37
71960;BMP280;59832;51.146;14.024;2023-08-21T01:26:22;98871.56;;;21.32
71960;BMP280;59832;51.146;14.024;2023-08-21T01:28:48;98878.97;;;21.34
71960;BMP280;59832;51.146;14.024;2023-08-21T01:33:45;98876.38;;;21.34
71960;BMP280;59832;51.146;14.024;2023-08-21T01:36:14;98880.81;;;21.33
71960;BMP280;59832;51.146;14.024;2023-08-21T01:38:40;98873.44;;;21.32
71960;BMP280;59832;51.146;14.024;2023-08-21T01:41:07;98874.25;;;21.29
71960;BMP280;59832;51.146;14.024;2023-08-21T01:43:34;98879.50;;;21.25
71960;BMP280;59832;51.146;14.024;2023-08-21T01:46:00;98874.41;;;21.22
71960;BMP280;59832;51.146;14.024;2023-08-21T01:48:27;98873.47;;;21.12
71960;BMP280;59832;51.146;14.024;2023-08-21T01:50:54;98862.56;;;21.21
71960;BMP280;59832;51.146;14.024;2023-08-21T01:53:20;98855.13;;;21.23
71960;BMP280;59832;51.146;14.024;2023-08-21T01:55:46;98862.63;;;21.17
71960;BMP280;59832;51.146;14.024;2023-08-21T01:58:13;98859.25;;;21.20
71960;BMP280;59832;51.146;14.024;2023-08-21T02:00:39;98866.28;;;21.20
71960;BMP280;59832;51.146;14.024;2023-08-21T02:03:06;98860.44;;;21.16
71960;BMP280;59832;51.146;14.024;2023-08-21T02:05:39;98869.75;;;21.13
71960;BMP280;59832;51.146;14.024;2023-08-21T02:08:06;98874.84;;;21.17
71960;BMP280;59832;51.146;14.024;2023-08-21T02:10:33;98874.00;;;21.23
71960;BMP280;59832;51.146;14.024;2023-08-21T02:13:00;98878.69;;;21.28
71960;BMP280;59832;51.146;14.024;2023-08-21T02:15:26;98866.41;;;21.32
71960;BMP280;59832;51.146;14.024;2023-08-21T02:17:53;98861.47;;;21.22
71960;BMP280;59832;51.146;14.024;2023-08-21T02:20:20;98866.22;;;21.23
71960;BMP280;59832;51.146;14.024;2023-08-21T02:22:47;98869.53;;;21.24
71960;BMP280;59832;51.146;14.024;2023-08-21T02:25:13;98859.41;;;21.13
71960;BMP280;59832;51.146;14.024;2023-08-21T02:27:39;98869.75;;;21.13
71960;BMP280;59832;51.146;14.024;2023-08-21T02:30:06;98868.94;;;21.16
71960;BMP280;59832;51.146;14.024;2023-08-21T02:32:33;98873.34;;;21.19
71960;BMP280;59832;51.146;14.024;2023-08-21T02:35:01;98877.00;;;21.22
71960;BMP280;59832;51.146;14.024;2023-08-21T02:37:27;98874.06;;;21.20
71960;BMP280;59832;51.146;14.024;2023-08-21T02:39:54;98880.69;;;21.21
71960;BMP280;59832;51.146;14.024;2023-08-21T02:42:20;98869.59;;;21.20
71960;BMP280;59832;51.146;14.024;2023-08-21T02:44:47;98873.78;;;21.14
71960;BMP280;59832;51.146;14.024;2023-08-21T02:47:13;98867.16;;;21.13
71960;BMP280;59832;51.146;14.024;2023-08-21T02:49:39;98873.47;;;21.12
71960;BMP280;59832;51.146;14.024;2023-08-21T02:52:06;98869.44;;;21.11
71960;BMP280;59832;51.146;14.024;2023-08-21T02:54:32;98864.69;;;21.06
71960;BMP280;59832;51.146;14.024;2023-08-21T02:56:59;98859.84;;;21.08
71960;BMP280;59832;51.146;14.024;2023-08-21T02:59:25;98860.19;;;21.10
71960;BMP280;59832;51.146;14.024;2023-08-21T03:01:51;98863.56;;;21.07
71960;BMP280;59832;51.146;14.024;2023-08-21T03:04:18;98864.63;;;21.10
71960;BMP280;59832;51.146;14.024;2023-08-21T03:06:44;98858.41;;;21.07
71960;BMP280;59832;51.146;14.024;2023-08-21T03:09:11;98867.97;;;21.10
71960;BMP280;59832;51.146;14.024;2023-08-21T03:11:37;98875.72;;;21.10
71960;BMP280;59832;51.146;14.024;2023-08-21T03:14:03;98876.78;;;21.13
71960;BMP280;59832;51.146;14.024;2023-08-21T03:16:30;98883.41;;;21.14
71960;BMP280;59832;51.146;14.024;2023-08-21T03:18:57;98881.13;;;21.16
71960;BMP280;59832;51.146;14.024;2023-08-21T03:21:24;98877.38;;;21.20
71960;BMP280;59832;51.146;14.024;2023-08-21T03:23:51;98874.41;;;21.02
71960;BMP280;59832;51.146;14.024;2023-08-21T03:26:18;98867.81;;;20.98
71960;BMP280;59832;51.146;14.024;2023-08-21T03:28:44;98867.41;;;20.99
71960;BMP280;59832;51.146;14.024;2023-08-21T03:31:11;98875.56;;;20.98
71960;BMP280;59832;51.146;14.024;2023-08-21T03:33:37;98872.25;;;20.97
71960;BMP280;59832;51.146;14.024;2023-08-21T03:36:03;98880.38;;;20.99
71960;BMP280;59832;51.146;14.024;2023-08-21T03:38:30;98874.09;;;20.97
71960;BMP280;59832;51.146;14.024;2023-08-21T03:40:56;98888.50;;;20.98
71960;BMP280;59832;51.146;14.024;2023-08-21T03:43:23;98891.19;;;20.94
71960;BMP280;59832;51.146;14.024;2023-08-21T03:45:49;98887.03;;;20.97
71960;BMP280;59832;51.146;14.024;2023-08-21T03:48:16;98892.66;;;20.95
71960;BMP280;59832;51.146;14.024;2023-08-21T03:50:42;98891.56;;;20.93
71960;BMP280;59832;51.146;14.024;2023-08-21T03:53:08;98897.53;;;20.90
71960;BMP280;59832;51.146;14.024;2023-08-21T03:55:35;98904.50;;;20.93
71960;BMP280;59832;51.146;14.024;2023-08-21T03:58:01;98909.66;;;20.93
71960;BMP280;59832;51.146;14.024;2023-08-21T04:00:28;98903.38;;;20.94
71960;BMP280;59832;51.146;14.024;2023-08-21T04:02:54;98898.22;;;20.94
71960;BMP280;59832;51.146;14.024;2023-08-21T04:05:20;98895.53;;;20.97
71960;BMP280;59832;51.146;14.024;2023-08-21T04:07:47;98897.00;;;20.98
71960;BMP280;59832;51.146;14.024;2023-08-21T04:10:13;98892.56;;;20.99
71960;BMP280;59832;51.146;14.024;2023-08-21T04:12:39;98891.09;;;20.98
71960;BMP280;59832;51.146;14.024;2023-08-21T04:15:07;98890.34;;;20.97
71960;BMP280;59832;51.146;14.024;2023-08-21T04:17:33;98881.56;;;20.95
71960;BMP280;59832;51.146;14.024;2023-08-21T04:20:00;98892.94;;;20.97
71960;BMP280;59832;51.146;14.024;2023-08-21T04:22:26;98876.38;;;20.95
71960;BMP280;59832;51.146;14.024;2023-08-21T04:24:52;98886.00;;;20.94
71960;BMP280;59832;51.146;14.024;2023-08-21T04:27:19;98885.44;;;20.83
71960;BMP280;59832;51.146;14.024;2023-08-21T04:29:45;98883.19;;;20.85
71960;BMP280;59832;51.146;14.024;2023-08-21T04:32:12;98886.38;;;20.93
71960;BMP280;59832;51.146;14.024;2023-08-21T04:34:38;98876.63;;;21.00
71960;BMP280;59832;51.146;14.024;2023-08-21T04:37:05;98876.63;;;21.00
71960;BMP280;59832;51.146;14.024;2023-08-21T04:39:31;98881.25;;;20.89
71960;BMP280;59832;51.146;14.024;2023-08-21T04:41:58;98880.25;;;20.83
71960;BMP280;59832;51.146;14.024;2023-08-21T04:44:24;98885.78;;;20.85
71960;BMP280;59832;51.146;14.024;2023-08-21T04:46:50;98881.25;;;20.89
71960;BMP280;59832;51.146;14.024;2023-08-21T04:49:17;98887.03;;;20.97
71960;BMP280;59832;51.146;14.024;2023-08-21T04:51:43;98885.47;;;21.03
71960;BMP280;59832;51.146;14.024;2023-08-21T04:54:10;98890.53;;;21.10
71960;BMP280;59832;51.146;14.024;2023-08-21T04:56:36;98888.56;;;21.14
71960;BMP280;59832;51.146;14.024;2023-08-21T04:59:02;98903.16;;;21.27
71960;BMP280;59832;51.146;14.024;2023-08-21T05:01:29;98890.44;;;21.33
71960;BMP280;59832;51.146;14.024;2023-08-21T05:03:55;98896.63;;;21.39
71960;BMP280;59832;51.146;14.024;2023-08-21T05:06:22;98897.03;;;21.37
71960;BMP280;59832;51.146;14.024;2023-08-21T05:08:48;98895.91;;;21.38
71960;BMP280;59832;51.146;14.024;2023-08-21T05:11:14;98894.81;;;21.36
71960;BMP280;59832;51.146;14.024;2023-08-21T05:13:41;98895.91;;;21.38
71960;BMP280;59832;51.146;14.024;2023-08-21T05:16:07;98896.78;;;21.48
71960;BMP280;59832;51.146;14.024;2023-08-21T05:18:34;98903.75;;;21.71
71960;BMP280;59832;51.146;14.024;2023-08-21T05:21:01;98905.13;;;21.75
71960;BMP280;59832;51.146;14.024;2023-08-21T05:23:27;98913.00;;;21.88
71960;BMP280;59832;51.146;14.024;2023-08-21T05:25:54;98906.78;;;22.02
71960;BMP280;59832;51.146;14.024;2023-08-21T05:28:20;98908.91;;;22.23
71960;BMP280;59832;51.146;14.024;2023-08-21T05:30:47;98910.53;;;22.33
71960;BMP280;59832;51.146;14.024;2023-08-21T05:33:15;98913.09;;;22.49
71960;BMP280;59832;51.146;14.024;2023-08-21T05:35:41;98909.34;;;22.66
71960;BMP280;59832;51.146;14.024;2023-08-21T05:38:08;98906.97;;;22.72
71960;BMP280;59832;51.146;14.024;2023-08-21T05:40:34;98909.63;;;22.84
71960;BMP280;59832;51.146;14.024;2023-08-21T05:43:00;98917.56;;;22.93
71960;BMP280;59832;51.146;14.024;2023-08-21T05:45:27;98923.84;;;23.08
71960;BMP280;59832;51.146;14.024;2023-08-21T05:47:54;98923.13;;;23.20
71960;BMP280;59832;51.146;14.024;2023-08-21T05:50:21;98914.56;;;23.36
71960;BMP280;59832;51.146;14.024;2023-08-21T05:52:47;98918.19;;;23.51
71960;BMP280;59832;51.146;14.024;2023-08-21T05:55:14;98920.28;;;23.69
71960;BMP280;59832;51.146;14.024;2023-08-21T05:57:41;98926.44;;;23.88
71960;BMP280;59832;51.146;14.024;2023-08-21T06:00:07;98933.66;;;23.93
71960;BMP280;59832;51.146;14.024;2023-08-21T06:02:36;98925.16;;;24.05
71960;BMP280;59832;51.146;14.024;2023-08-21T06:05:03;98923.78;;;24.00
71960;BMP280;59832;51.146;14.024;2023-08-21T06:07:30;98920.44;;;24.00
71960;BMP280;59832;51.146;14.024;2023-08-21T06:09:56;98917.06;;;24.37
71960;BMP280;59832;51.146;14.024;2023-08-21T06:12:22;98920.50;;;24.34
71960;BMP280;59832;51.146;14.024;2023-08-21T06:14:49;98912.03;;;24.55
71960;BMP280;59832;51.146;14.024;2023-08-21T06:17:15;98906.88;;;24.64
71960;BMP280;59832;51.146;14.024;2023-08-21T06:19:42;98905.59;;;24.47
71960;BMP280;59832;51.146;14.024;2023-08-21T06:22:08;98915.34;;;24.56
71960;BMP280;59832;51.146;14.024;2023-08-21T06:24:34;98911.72;;;24.75
71960;BMP280;59832;51.146;14.024;2023-08-21T06:27:01;98915.81;;;24.85
71960;BMP280;59832;51.146;14.024;2023-08-21T06:29:27;98925.56;;;24.93
71960;BMP280;59832;51.146;14.024;2023-08-21T06:31:54;98928.41;;;25.08
71960;BMP280;59832;51.146;14.024;2023-08-21T06:34:20;98925.34;;;25.00
71960;BMP280;59832;51.146;14.024;2023-08-21T06:36:46;98922.00;;;25.31
71960;BMP280;59832;51.146;14.024;2023-08-21T06:39:13;98924.59;;;25.70
71960;BMP280;59832;51.146;14.024;2023-08-21T06:41:42;98917.81;;;25.82
71960;BMP280;59832;51.146;14.024;2023-08-21T06:44:09;98921.03;;;25.86
71960;BMP280;59832;51.146;14.024;2023-08-21T06:46:35;98927.84;;;25.93
71960;BMP280;59832;51.146;14.024;2023-08-21T06:49:02;98920.63;;;26.24
71960;BMP280;59832;51.146;14.024;2023-08-21T06:51:29;98922.81;;;26.52
71960;BMP280;59832;51.146;14.024;2023-08-21T06:53:56;98919.16;;;26.41
71960;BMP280;59832;51.146;14.024;2023-08-21T06:56:22;98922.94;;;26.49
71960;BMP280;59832;51.146;14.024;2023-08-21T06:58:49;98919.34;;;26.46
71960;BMP280;59832;51.146;14.024;2023-08-21T07:01:15;98912.59;;;26.73
71960;BMP280;59832;51.146;14.024;2023-08-21T07:03:42;98909.00;;;26.70
71960;BMP280;59832;51.146;14.024;2023-08-21T07:06:09;98904.09;;;26.72
71960;BMP280;59832;51.146;14.024;2023-08-21T07:08:35;98917.81;;;26.82
71960;BMP280;59832;51.146;14.024;2023-08-21T07:11:03;98912.91;;;26.66
71960;BMP280;59832;51.146;14.024;2023-08-21T07:13:30;98910.56;;;26.77
71960;BMP280;59832;51.146;14.024;2023-08-21T07:15:57;98915.69;;;26.71
71960;BMP280;59832;51.146;14.024;2023-08-21T07:18:23;98924.25;;;27.22
71960;BMP280;59832;51.146;14.024;2023-08-21T07:20:51;98925.50;;;27.60
71960;BMP280;59832;51.146;14.024;2023-08-21T07:23:18;98926.81;;;27.79
71960;BMP280;59832;51.146;14.024;2023-08-21T07:25:44;98929.59;;;27.52
71960;BMP280;59832;51.146;14.024;2023-08-21T07:28:10;98928.53;;;26.93
71960;BMP280;59832;51.146;14.024;2023-08-21T07:30:37;98931.13;;;26.93
71960;BMP280;59832;51.146;14.024;2023-08-21T07:33:04;98930.19;;;26.63
71960;BMP280;59832;51.146;14.024;2023-08-21T07:35:32;98936.72;;;26.49
71960;BMP280;59832;51.146;14.024;2023-08-21T07:37:58;98938.47;;;26.52
71960;BMP280;59832;51.146;14.024;2023-08-21T07:40:25;98943.09;;;26.48
71960;BMP280;59832;51.146;14.024;2023-08-21T07:42:51;98940.78;;;26.32
71960;BMP280;59832;51.146;14.024;2023-08-21T07:45:18;98931.75;;;26.70
71960;BMP280;59832;51.146;14.024;2023-08-21T07:47:44;98937.72;;;26.88
71960;BMP280;59832;51.146;14.024;2023-08-21T07:50:11;98933.28;;;27.03
71960;BMP280;59832;51.146;14.024;2023-08-21T07:52:40;98941.41;;;27.47
71960;BMP280;59832;51.146;14.024;2023-08-21T07:55:07;98937.56;;;27.57
71960;BMP280;59832;51.146;14.024;2023-08-21T07:57:33;98928.78;;;27.69
71960;BMP280;59832;51.146;14.024;2023-08-21T08:00:00;98939.81;;;28.12
71960;BMP280;59832;51.146;14.024;2023-08-21T08:02:26;98944.66;;;28.42
71960;BMP280;59832;51.146;14.024;2023-08-21T08:04:52;98944.38;;;28.40
71960;BMP280;59832;51.146;14.024;2023-08-21T08:07:19;98941.75;;;28.69
71960;BMP280;59832;51.146;14.024;2023-08-21T08:09:46;98943.78;;;29.09
71960;BMP280;59832;51.146;14.024;2023-08-21T08:12:13;98934.38;;;29.17
71960;BMP280;59832;51.146;14.024;2023-08-21T08:14:39;98933.25;;;29.04
71960;BMP280;59832;51.146;14.024;2023-08-21T08:17:06;98933.28;;;29.44
71960;BMP280;59832;51.146;14.024;2023-08-21T08:19:32;98937.91;;;29.75
71960;BMP280;59832;51.146;14.024;2023-08-21T08:21:59;98936.09;;;29.61
71960;BMP280;59832;51.146;14.024;2023-08-21T08:24:25;98930.72;;;29.49
71960;BMP280;59832;51.146;14.024;2023-08-21T08:26:52;98934.84;;;29.76
71960;BMP280;59832;51.146;14.024;2023-08-21T08:29:19;98932.31;;;29.41
71960;BMP280;59832;51.146;14.024;2023-08-21T08:31:45;98940.50;;;29.49
71960;BMP280;59832;51.146;14.024;2023-08-21T08:34:12;98949.28;;;29.66
71960;BMP280;59832;51.146;14.024;2023-08-21T08:36:38;98943.00;;;29.58
71960;BMP280;59832;51.146;14.024;2023-08-21T08:39:07;98950.00;;;29.87
71960;BMP280;59832;51.146;14.024;2023-08-21T08:41:44;98944.41;;;30.25
71960;BMP280;59832;51.146;14.024;2023-08-21T08:44:14;98937.47;;;30.22
71960;BMP280;59832;51.146;14.024;2023-08-21T08:46:41;98945.75;;;30.15
71960;BMP280;59832;51.146;14.024;2023-08-21T08:49:08;98938.78;;;30.12
71960;BMP280;59832;51.146;14.024;2023-08-21T08:51:35;98942.38;;;30.66
71960;BMP280;59832;51.146;14.024;2023-08-21T08:54:04;98940.53;;;29.95
71960;BMP280;59832;51.146;14.024;2023-08-21T08:56:30;98937.88;;;29.69
71960;BMP280;59832;51.146;14.024;2023-08-21T08:58:56;98943.03;;;29.23
71960;BMP280;59832;51.146;14.024;2023-08-21T09:01:23;98940.91;;;29.07
71960;BMP280;59832;51.146;14.024;2023-08-21T09:03:49;98939.28;;;29.10
71960;BMP280;59832;51.146;14.024;2023-08-21T09:06:16;98946.78;;;29.77
71960;BMP280;59832;51.146;14.024;2023-08-21T09:08:55;98932.19;;;29.51
71960;BMP280;59832;51.146;14.024;2023-08-21T09:11:22;98930.03;;;29.95
71960;BMP280;59832;51.146;14.024;2023-08-21T09:13:51;98935.16;;;30.04
71960;BMP280;59832;51.146;14.024;2023-08-21T09:16:19;98936.19;;;30.43
71960;BMP280;59832;51.146;14.024;2023-08-21T09:18:49;98931.72;;;30.49
71960;BMP280;59832;51.146;14.024;2023-08-21T09:21:19;98932.50;;;30.92
71960;BMP280;59832;51.146;14.024;2023-08-21T09:23:46;98930.00;;;30.41
71960;BMP280;59832;51.146;14.024;2023-08-21T09:26:19;98929.47;;;29.85
71960;BMP280;59832;51.146;14.024;2023-08-21T09:28:47;98940.84;;;29.77
71960;BMP280;59832;51.146;14.024;2023-08-21T09:31:14;98932.41;;;30.18
71960;BMP280;59832;51.146;14.024;2023-08-21T09:33:41;98935.81;;;29.73
71960;BMP280;59832;51.146;14.024;2023-08-21T09:36:08;98929.41;;;29.19
71960;BMP280;59832;51.146;14.024;2023-08-21T09:38:35;98936.44;;;28.79
71960;BMP280;59832;51.146;14.024;2023-08-21T09:41:04;98933.91;;;28.84
71960;BMP280;59832;51.146;14.024;2023-08-21T09:43:30;98935.16;;;28.74
71960;BMP280;59832;51.146;14.024;2023-08-21T09:45:56;98932.63;;;28.36
71960;BMP280;59832;51.146;14.024;2023-08-21T09:48:23;98934.44;;;27.91
71960;BMP280;59832;51.146;14.024;2023-08-21T09:50:51;98938.59;;;27.98
71960;BMP280;59832;51.146;14.024;2023-08-21T09:53:17;98936.28;;;28.00
71960;BMP280;59832;51.146;14.024;2023-08-21T09:55:45;98928.38;;;28.09
71960;BMP280;59832;51.146;14.024;2023-08-21T09:58:12;98938.34;;;28.78
71960;BMP280;59832;51.146;14.024;2023-08-21T10:00:41;98935.91;;;28.75
71960;BMP280;59832;51.146;14.024;2023-08-21T10:03:08;98930.66;;;28.75
71960;BMP280;59832;51.146;14.024;2023-08-21T10:05:37;98927.31;;;28.59
71960;BMP280;59832;51.146;14.024;2023-08-21T10:08:04;98932.81;;;28.47
71960;BMP280;59832;51.146;14.024;2023-08-21T10:10:32;98929.94;;;28.45
71960;BMP280;59832;51.146;14.024;2023-08-21T10:12:59;98928.41;;;28.67
71960;BMP280;59832;51.146;14.024;2023-08-21T10:15:27;98927.84;;;28.63
71960;BMP280;59832;51.146;14.024;2023-08-21T10:17:54;98921.09;;;29.41
71960;BMP280;59832;51.146;14.024;2023-08-21T10:20:21;98912.91;;;30.25
71960;BMP280;59832;51.146;14.024;2023-08-21T10:22:54;98914.38;;;30.63
71960;BMP280;59832;51.146;14.024;2023-08-21T10:25:23;98920.03;;;30.81
71960;BMP280;59832;51.146;14.024;2023-08-21T10:27:50;98919.72;;;30.11
71960;BMP280;59832;51.146;14.024;2023-08-21T10:30:21;98918.00;;;30.08
71960;BMP280;59832;51.146;14.024;2023-08-21T10:32:49;98926.88;;;30.11
71960;BMP280;59832;51.146;14.024;2023-08-21T10:35:20;98921.56;;;30.31
71960;BMP280;59832;51.146;14.024;2023-08-21T10:38:06;98916.84;;;30.72
71960;BMP280;59832;51.146;14.024;2023-08-21T10:40:33;98917.75;;;31.00
71960;BMP280;59832;51.146;14.024;2023-08-21T10:43:00;98904.47;;;31.37
71960;BMP280;59832;51.146;14.024;2023-08-21T10:45:27;98904.81;;;30.60
71960;BMP280;59832;51.146;14.024;2023-08-21T10:47:56;98910.53;;;30.27
71960;BMP280;59832;51.146;14.024;2023-08-21T10:50:22;98915.03;;;29.95
71960;BMP280;59832;51.146;14.024;2023-08-21T10:52:49;98911.72;;;29.55
71960;BMP280;59832;51.146;14.024;2023-08-21T10:55:17;98903.91;;;29.20
71960;BMP280;59832;51.146;14.024;2023-08-21T10:57:47;98907.63;;;29.13
71960;BMP280;59832;51.146;14.024;2023-08-21T11:00:14;98906.09;;;29.07
71960;BMP280;59832;51.146;14.024;2023-08-21T11:02:42;98910.97;;;29.74
71960;BMP280;59832;51.146;14.024;2023-08-21T11:05:09;98910.53;;;30.01
71960;BMP280;59832;51.146;14.024;2023-08-21T11:07:37;98914.91;;;30.36
71960;BMP280;59832;51.146;14.024;2023-08-21T11:10:04;98902.41;;;30.98
71960;BMP280;59832;51.146;14.024;2023-08-21T11:12:31;98894.97;;;30.49
71960;BMP280;59832;51.146;14.024;2023-08-21T11:14:57;98896.44;;;30.56
71960;BMP280;59832;51.146;14.024;2023-08-21T11:17:24;98894.00;;;30.83
71960;BMP280;59832;51.146;14.024;2023-08-21T11:19:50;98896.19;;;30.22
71960;BMP280;59832;51.146;14.024;2023-08-21T11:22:18;98894.44;;;29.63
71960;BMP280;59832;51.146;14.024;2023-08-21T11:24:45;98897.84;;;29.14
71960;BMP280;59832;51.146;14.024;2023-08-21T11:27:16;98900.38;;;28.73
71960;BMP280;59832;51.146;14.024;2023-08-21T11:29:47;98905.38;;;28.57
71960;BMP280;59832;51.146;14.024;2023-08-21T11:32:17;98889.38;;;28.11
71960;BMP280;59832;51.146;14.024;2023-08-21T11:34:48;98894.78;;;28.22
71960;BMP280;59832;51.146;14.024;2023-08-21T11:37:16;98901.28;;;28.70
71960;BMP280;59832;51.146;14.024;2023-08-21T11:39:43;98892.97;;;29.41
71960;BMP280;59832;51.146;14.024;2023-08-21T11:42:10;98897.81;;;30.20
71960;BMP280;59832;51.146;14.024;2023-08-21T11:44:48;98888.03;;;30.52
71960;BMP280;59832;51.146;14.024;2023-08-21T11:47:16;98888.91;;;30.74
71960;BMP280;59832;51.146;14.024;2023-08-21T11:49:43;98881.75;;;31.17
71960;BMP280;59832;51.146;14.024;2023-08-21T11:52:10;98880.44;;;31.66
71960;BMP280;59832;51.146;14.024;2023-08-21T11:54:38;98876.91;;;30.68
71960;BMP280;59832;51.146;14.024;2023-08-21T11:57:05;98880.22;;;30.00
71960;BMP280;59832;51.146;14.024;2023-08-21T11:59:32;98885.69;;;29.31
71960;BMP280;59832;51.146;14.024;2023-08-21T12:01:58;98882.56;;;28.92
71960;BMP280;59832;51.146;14.024;2023-08-21T12:04:25;98890.09;;;28.55
71960;BMP280;59832;51.146;14.024;2023-08-21T12:06:51;98888.13;;;28.65
71960;BMP280;59832;51.146;14.024;2023-08-21T12:09:18;98883.25;;;28.29
71960;BMP280;59832;51.146;14.024;2023-08-21T12:11:47;98882.34;;;28.46
71960;BMP280;59832;51.146;14.024;2023-08-21T12:14:14;98886.34;;;28.42
71960;BMP280;59832;51.146;14.024;2023-08-21T12:16:40;98876.75;;;28.53
71960;BMP280;59832;51.146;14.024;2023-08-21T12:19:07;98881.81;;;28.42
71960;BMP280;59832;51.146;14.024;2023-08-21T12:21:35;98879.06;;;29.15
71960;BMP280;59832;51.146;14.024;2023-08-21T12:24:04;98882.72;;;29.64
71960;BMP280;59832;51.146;14.024;2023-08-21T12:26:32;98876.75;;;29.63
71960;BMP280;59832;51.146;14.024;2023-08-21T12:29:13;98880.59;;;29.42
71960;BMP280;59832;51.146;14.024;2023-08-21T12:31:40;98885.28;;;29.18
71960;BMP280;59832;51.146;14.024;2023-08-21T12:34:06;98876.38;;;29.96
71960;BMP280;59832;51.146;14.024;2023-08-21T12:36:36;98877.63;;;30.68
71960;BMP280;59832;51.146;14.024;2023-08-21T12:39:06;98876.31;;;30.47
71960;BMP280;59832;51.146;14.024;2023-08-21T12:41:32;98869.97;;;30.28
71960;BMP280;59832;51.146;14.024;2023-08-21T12:43:59;98877.34;;;29.73
71960;BMP280;59832;51.146;14.024;2023-08-21T12:46:26;98863.72;;;29.48
71960;BMP280;59832;51.146;14.024;2023-08-21T12:48:53;98862.16;;;29.57
71960;BMP280;59832;51.146;14.024;2023-08-21T12:51:20;98859.16;;;29.69
71960;BMP280;59832;51.146;14.024;2023-08-21T12:53:46;98861.69;;;29.58
71960;BMP280;59832;51.146;14.024;2023-08-21T12:56:12;98867.91;;;29.61
71960;BMP280;59832;51.146;14.024;2023-08-21T12:58:39;98862.09;;;29.71
71960;BMP280;59832;51.146;14.024;2023-08-21T13:01:05;98867.59;;;29.53
71960;BMP280;59832;51.146;14.024;2023-08-21T13:03:33;98866.94;;;29.84
71960;BMP280;59832;51.146;14.024;2023-08-21T13:05:59;98870.94;;;29.54
71960;BMP280;59832;51.146;14.024;2023-08-21T13:08:26;98875.16;;;29.45
71960;BMP280;59832;51.146;14.024;2023-08-21T13:10:53;98868.72;;;29.46
71960;BMP280;59832;51.146;14.024;2023-08-21T13:13:19;98872.53;;;28.91
71960;BMP280;59832;51.146;14.024;2023-08-21T13:15:45;98865.53;;;29.02
71960;BMP280;59832;51.146;14.024;2023-08-21T13:18:13;98868.84;;;29.17
71960;BMP280;59832;51.146;14.024;2023-08-21T13:20:43;98860.50;;;29.39
71960;BMP280;59832;51.146;14.024;2023-08-21T13:23:10;98860.66;;;29.30
71960;BMP280;59832;51.146;14.024;2023-08-21T13:25:36;98860.72;;;29.35
71960;BMP280;59832;51.146;14.024;2023-08-21T13:28:03;98863.31;;;29.15
71960;BMP280;59832;51.146;14.024;2023-08-21T13:30:30;98873.63;;;29.19
71960;BMP280;59832;51.146;14.024;2023-08-21T13:32:57;98862.78;;;28.91
71960;BMP280;59832;51.146;14.024;2023-08-21T13:35:24;98856.22;;;28.81
71960;BMP280;59832;51.146;14.024;2023-08-21T13:37:50;98856.69;;;28.65
71960;BMP280;59832;51.146;14.024;2023-08-21T13:40:17;98862.00;;;28.70
71960;BMP280;59832;51.146;14.024;2023-08-21T13:42:44;98855.59;;;28.71
71960;BMP280;59832;51.146;14.024;2023-08-21T13:45:12;98853.81;;;28.63
71960;BMP280;59832;51.146;14.024;2023-08-21T13:47:39;98855.06;;;28.67
71960;BMP280;59832;51.146;14.024;2023-08-21T13:50:07;98852.34;;;28.77
71960;BMP280;59832;51.146;14.024;2023-08-21T13:52:34;98848.16;;;28.85
71960;BMP280;59832;51.146;14.024;2023-08-21T13:55:01;98842.38;;;28.95
71960;BMP280;59832;51.146;14.024;2023-08-21T13:57:28;98852.38;;;28.47
71960;BMP280;59832;51.146;14.024;2023-08-21T13:59:55;98853.06;;;28.62